Bourbon Astyanax — FMGV — position and weather

sailwx.info

Track history (hours):
 
Tides and Currents Weather Stations Pressure Air Temp Water Temp Dewpoint Dewpoint Depression Visibility Wind Speed Wind Dir Waves Ship Positions

Bourbon Astyanax

Last reported at 2017-Oct-19 18:17 UTC. Time now 2017-Nov-19 01:09 UTC.
Position N 04°36' W 003°07'.
Warning: this ship's position is 30 days out of date.

Length 67 m; draft 5.9 m.

Type: Tug. MMSI: 228322600.

Date/timePositionNaut miles runAvg speedWind from/ knotsBaromVisibWave heightAir tempDewpointWater temp
2017-Oct-19 18:17N 04°36' W 003°07'1 2.7
2017-Oct-19 18:00N 04°35' W 003°08'0 0.3
2017-Oct-19 17:30N 04°35' W 003°08'0 0.0
2017-Oct-19 16:59N 04°35' W 003°08'1 1.5
2017-Oct-19 16:30N 04°36' W 003°08'611.6
2017-Oct-19 16:00N 04°37' W 003°02'611.9
2017-Oct-19 15:29N 04°38' W 002°56'612.0
2017-Oct-19 14:59N 04°39' W 002°50'611.9
2017-Oct-19 14:29N 04°40' W 002°44'611.6
2017-Oct-19 14:00N 04°39' W 002°38'1 1.5
2017-Oct-19 13:28N 04°40' W 002°39'2 4.9
2017-Oct-19 12:58N 04°38' W 002°40'612.3
2017-Oct-19 12:30N 04°34' W 002°45'58 3.2
2017-Oct-18 18:35N 04°46' W 001°47'110.4
2017-Oct-18 18:29N 04°46' W 001°47'510.2
2017-Oct-18 17:59N 04°50' W 001°44'4 7.5
2017-Oct-18 17:29N 04°54' W 001°42'2 4.8
2017-Oct-18 17:01N 04°53' W 001°44'0 0.1
2017-Oct-18 16:30N 04°53' W 001°44'0 0.0
2017-Oct-18 15:58N 04°53' W 001°44'0 0.0
2017-Oct-18 15:31N 04°53' W 001°44'0 0.0
2017-Oct-18 15:01N 04°53' W 001°44'0 0.0
2017-Oct-18 14:00N 04°53' W 001°44'0 0.0
2017-Oct-18 13:30N 04°53' W 001°44'0 0.0
2017-Oct-18 13:00N 04°53' W 001°44'1 2.0
2017-Oct-18 12:29N 04°54' W 001°44'2 3.1
2017-Oct-18 11:59N 04°54' W 001°42'0 0.0
2017-Oct-18 11:29N 04°54' W 001°42'0 0.0
2017-Oct-18 10:59N 04°54' W 001°42'0 0.0
2017-Oct-18 10:29N 04°54' W 001°42'0 0.0
2017-Oct-18 09:59N 04°54' W 001°42'0 0.1
2017-Oct-18 09:29N 04°54' W 001°42'0 0.4
2017-Oct-18 08:59N 04°54' W 001°43'2 3.7
2017-Oct-18 08:30N 04°55' W 001°41'2 4.0
2017-Oct-18 08:00N 04°56' W 001°42'0 0.0
2017-Oct-18 07:30N 04°56' W 001°42'0 0.0
2017-Oct-18 07:00N 04°56' W 001°42'0 0.0
2017-Oct-18 06:30N 04°56' W 001°42'0 0.0
2017-Oct-18 06:00N 04°56' W 001°42'0 0.0
2017-Oct-18 05:30N 04°56' W 001°42'0 0.0
2017-Oct-18 04:57N 04°56' W 001°42'0 0.0
2017-Oct-18 04:30N 04°56' W 001°42'0 0.0
2017-Oct-18 04:00N 04°56' W 001°42'0 0.0
2017-Oct-18 03:30N 04°56' W 001°42'0 0.0
2017-Oct-18 03:00N 04°56' W 001°42'0 0.0
2017-Oct-18 02:30N 04°56' W 001°42'0 0.0
2017-Oct-18 02:00N 04°56' W 001°42'0 0.0
2017-Oct-18 01:30N 04°56' W 001°42'0 0.0
2017-Oct-18 00:57N 04°56' W 001°42'0 0.0
2017-Oct-18 00:30N 04°56' W 001°42'0 0.0
2017-Oct-18 00:00N 04°56' W 001°42'0 0.0
2017-Oct-17 23:30N 04°56' W 001°42'0 0.0
2017-Oct-17 23:00N 04°56' W 001°42'0 0.0
2017-Oct-17 22:29N 04°56' W 001°42'0 0.0
2017-Oct-17 21:59N 04°56' W 001°42'0 0.0
2017-Oct-17 21:29N 04°56' W 001°42'0 0.0
2017-Oct-17 20:59N 04°56' W 001°42'0 0.0
2017-Oct-17 20:29N 04°56' W 001°42'0 0.0
2017-Oct-17 19:59N 04°56' W 001°42'0 0.0
2017-Oct-17 19:29N 04°56' W 001°42'0 0.0
2017-Oct-17 18:59N 04°56' W 001°42'0 0.0
2017-Oct-17 18:29N 04°56' W 001°42'0 0.0
2017-Oct-17 17:59N 04°56' W 001°42'0 0.0
2017-Oct-17 17:29N 04°56' W 001°42'0 0.0
2017-Oct-17 16:59N 04°56' W 001°42'0 0.0
2017-Oct-17 16:29N 04°56' W 001°42'0 0.0
2017-Oct-17 15:59N 04°56' W 001°42'0 0.0
2017-Oct-17 15:29N 04°56' W 001°42'0 0.0
2017-Oct-17 14:59N 04°56' W 001°42'0 0.0
2017-Oct-17 14:30N 04°56' W 001°42'1 2.7
2017-Oct-17 13:59N 04°57' W 001°40'0 0.3
2017-Oct-17 13:29N 04°56' W 001°41'1 1.4
2017-Oct-17 13:00N 04°56' W 001°41'3 5.3
2017-Oct-17 12:29N 04°54' W 001°43'1 1.6
2017-Oct-17 11:59N 04°55' W 001°43'0 0.0
2017-Oct-17 11:29N 04°55' W 001°43'0 0.0
2017-Oct-17 11:00N 04°55' W 001°43'0 0.0
2017-Oct-17 10:30N 04°55' W 001°43'0 0.0
2017-Oct-17 10:00N 04°55' W 001°43'0 0.2
2017-Oct-17 09:30N 04°55' W 001°43'0 0.1
2017-Oct-17 08:59N 04°55' W 001°43'0 0.1
2017-Oct-17 08:29N 04°55' W 001°43'0 0.0
2017-Oct-17 08:00N 04°55' W 001°43'0 0.2
2017-Oct-17 07:30N 04°54' W 001°43'0 0.0
2017-Oct-17 07:00N 04°54' W 001°43'0 0.0
2017-Oct-17 06:29N 04°54' W 001°43'0 0.1
2017-Oct-17 05:59N 04°54' W 001°43'2 3.4
2017-Oct-17 05:30N 04°53' W 001°42'2 3.3
2017-Oct-17 05:00N 04°52' W 001°42'3 6.6
2017-Oct-17 04:29N 04°49' W 001°44'3 6.6
2017-Oct-17 03:59N 04°46' W 001°46'3 6.3
2017-Oct-17 03:30N 04°44' W 001°48'3 6.8
2017-Oct-17 03:00N 04°42' W 001°50'4 7.1
2017-Oct-17 02:30N 04°39' W 001°53'4 7.1
2017-Oct-17 01:59N 04°37' W 001°55'4 7.4
2017-Oct-17 01:29N 04°34' W 001°58'4 7.3
2017-Oct-17 00:58N 04°31' W 002°00'3 6.7
2017-Oct-17 00:30N 04°30' W 002°03'54 2.9
2017-Oct-16 05:41N 04°20' W 002°56'0 1.2
2017-Oct-16 05:25N 04°21' W 002°56'1 1.2
2017-Oct-16 04:59N 04°21' W 002°57'1 2.6
2017-Oct-16 04:24N 04°22' W 002°55'4 9.0
2017-Oct-16 04:00N 04°24' W 002°53'4 7.3
2017-Oct-16 03:30N 04°27' W 002°51'4 7.2
2017-Oct-16 03:00N 04°30' W 002°48'4 7.2
2017-Oct-16 02:30N 04°33' W 002°46'4 7.2
2017-Oct-16 01:59N 04°33' W 002°43'4 7.5
2017-Oct-16 01:29N 04°33' W 002°39'4 7.7
2017-Oct-16 01:00N 04°32' W 002°35'4 7.5
2017-Oct-16 00:30N 04°32' W 002°31'4 7.5
2017-Oct-16 00:00N 04°32' W 002°28'4 7.4
2017-Oct-15 23:29N 04°32' W 002°24'4 7.3
2017-Oct-15 22:59N 04°31' W 002°20'4 7.4
2017-Oct-15 22:30N 04°31' W 002°17'4 7.4
2017-Oct-15 22:00N 04°30' W 002°13'4 7.3
2017-Oct-15 21:29N 04°30' W 002°09'3 7.3
2017-Oct-15 21:00N 04°30' W 002°06'4 7.2
2017-Oct-15 20:29N 04°30' W 002°02'16 0.7
2017-Oct-14 20:54N 04°17' W 002°12'3 6.6
2017-Oct-14 20:28N 04°14' W 002°13'3 6.5
2017-Oct-14 20:00N 04°12' W 002°15'29 1.4
2017-Oct-13 22:38N 04°04' W 002°43'5 1.5
2017-Oct-13 19:10N 04°08' W 002°46'1 3.8
2017-Oct-13 18:55N 04°09' W 002°46'3 6.1
2017-Oct-13 18:30N 04°12' W 002°47'5 6.4
2017-Oct-13 17:44N 04°17' W 002°48'2 7.3
2017-Oct-13 17:30N 04°18' W 002°48'4 7.4
2017-Oct-13 17:00N 04°22' W 002°49'4 7.2
2017-Oct-13 16:29N 04°25' W 002°49'4 7.3
2017-Oct-13 15:59N 04°29' W 002°50'4 7.4
2017-Oct-13 15:29N 04°33' W 002°50'3 6.5
2017-Oct-13 15:00N 04°36' W 002°52'2 3.1
2017-Oct-13 14:29N 04°36' W 002°53'1 1.7
2017-Oct-13 14:00N 04°36' W 002°53'0 0.5
2017-Oct-13 13:28N 04°36' W 002°53'0 0.4
2017-Oct-13 12:59N 04°36' W 002°53'0 0.3
2017-Oct-13 12:29N 04°36' W 002°53'0 0.2
2017-Oct-13 12:00N 04°36' W 002°53'0 0.1
2017-Oct-13 11:29N 04°36' W 002°53'0 0.3
2017-Oct-13 10:58N 04°36' W 002°53'0 0.3
2017-Oct-13 10:29N 04°36' W 002°54'4 6.5
2017-Oct-13 09:54N 04°34' W 002°51'510.6
2017-Oct-13 09:27N 04°29' W 002°50'3 6.7
2017-Oct-13 09:00N 04°26' W 002°49'1 1.8
2017-Oct-13 08:29N 04°25' W 002°50'0 0.2
2017-Oct-13 07:59N 04°25' W 002°50'1 1.5
2017-Oct-13 07:29N 04°26' W 002°50'2 4.1
2017-Oct-13 07:00N 04°24' W 002°51'1 1.5
2017-Oct-13 06:29N 04°23' W 002°51'1 1.6
2017-Oct-13 05:54N 04°24' W 002°50'1 2.7
2017-Oct-13 05:30N 04°25' W 002°50'1 1.0
2017-Oct-13 04:59N 04°25' W 002°50'1 1.7
2017-Oct-13 04:30N 04°26' W 002°50'2 3.0
2017-Oct-13 04:00N 04°28' W 002°49'5 6.2
2017-Oct-13 03:11N 04°30' W 002°45'1 7.3
2017-Oct-13 02:59N 04°30' W 002°43'4 7.3
2017-Oct-13 02:29N 04°30' W 002°40'4 7.3
2017-Oct-13 01:59N 04°30' W 002°36'3 7.2
2017-Oct-13 01:30N 04°32' W 002°33'3 6.8
2017-Oct-13 01:00N 04°31' W 002°29'4 7.1
2017-Oct-13 00:29N 04°31' W 002°26'4 7.3
2017-Oct-12 23:59N 04°31' W 002°22'3 7.3
2017-Oct-12 23:30N 04°31' W 002°18'4 7.7
2017-Oct-12 23:00N 04°31' W 002°14'4 8.3
2017-Oct-12 22:29N 04°31' W 002°10'4 8.3
2017-Oct-12 22:00N 04°30' W 002°06'8 8.3
2017-Oct-12 21:02N 04°31' W 001°58'18 0.8
2017-Oct-11 22:48N 04°31' W 002°16'2 7.4
2017-Oct-11 22:29N 04°31' W 002°19'4 7.6
2017-Oct-11 22:00N 04°31' W 002°22'4 7.9
2017-Oct-11 21:29N 04°32' W 002°26'4 7.8
2017-Oct-11 20:59N 04°32' W 002°30'4 8.1
2017-Oct-11 20:30N 04°32' W 002°34'4 8.1
2017-Oct-11 20:00N 04°32' W 002°38'5 9.4
2017-Oct-11 19:29N 04°32' W 002°43'510.0
2017-Oct-11 18:59N 04°33' W 002°48'510.7
2017-Oct-11 18:30N 04°36' W 002°52'2 1.0
2017-Oct-11 16:51N 04°36' W 002°54'3 0.2
2017-Oct-10 23:58N 04°36' W 002°57'1 1.6
2017-Oct-10 23:30N 04°37' W 002°57'1 1.6
2017-Oct-10 23:00N 04°38' W 002°57'0 1.0
2017-Oct-10 22:29N 04°38' W 002°57'1 2.0
2017-Oct-10 21:59N 04°37' W 002°57'1 1.9
2017-Oct-10 21:30N 04°36' W 002°57'1 2.2
2017-Oct-10 21:00N 04°35' W 002°56'2 4.3
2017-Oct-10 20:29N 04°35' W 002°58'2 4.6
2017-Oct-10 20:00N 04°36' W 003°01'2 3.1
2017-Oct-10 19:23N 04°35' W 003°03'2 3.3
2017-Oct-10 18:50N 04°35' W 003°04'4 2.8
2017-Oct-10 17:21N 04°35' W 003°08'14 8.0
2017-Oct-10 15:34N 04°33' W 002°54'1 7.2
2017-Oct-10 15:29N 04°33' W 002°53'1 1.3
2017-Oct-10 15:00N 04°34' W 002°53'0 0.1
2017-Oct-10 13:59N 04°34' W 002°54'0 0.1
2017-Oct-10 13:30N 04°34' W 002°54'0 0.2
2017-Oct-10 13:00N 04°34' W 002°54'0 0.8
2017-Oct-10 12:29N 04°34' W 002°54'1 1.1
2017-Oct-10 11:53N 04°34' W 002°53'1 1.9
2017-Oct-10 11:25N 04°34' W 002°52'1 1.9
2017-Oct-10 10:58N 04°35' W 002°52'1 2.0
2017-Oct-10 10:29N 04°36' W 002°53'0 0.7
2017-Oct-10 10:00N 04°36' W 002°53'1 1.4
2017-Oct-10 09:30N 04°35' W 002°53'4 8.8
2017-Oct-10 09:00N 04°32' W 002°50'5 9.3
2017-Oct-10 08:29N 04°35' W 002°46'611.4
2017-Oct-10 07:59N 04°39' W 002°42'2 4.1
2017-Oct-10 07:27N 04°40' W 002°40'0 0.9
2017-Oct-10 06:59N 04°40' W 002°41'5 2.7
2017-Oct-10 05:13N 04°36' W 002°38'1 6.5
2017-Oct-10 04:59N 04°35' W 002°37'3 6.3
2017-Oct-10 04:29N 04°32' W 002°35'4 8.6
2017-Oct-10 04:00N 04°31' W 002°31'611.8
2017-Oct-10 03:30N 04°31' W 002°25'611.8
2017-Oct-10 03:00N 04°31' W 002°19'611.7
2017-Oct-10 02:30N 04°30' W 002°14'611.5
2017-Oct-10 01:59N 04°30' W 002°08'611.7
2017-Oct-10 01:29N 04°30' W 002°02'510.6
2017-Oct-10 00:59N 04°33' W 001°57'24 4.6
2017-Oct-09 19:49N 04°53' W 001°44'1 3.6
2017-Oct-09 19:30N 04°54' W 001°44'1 1.1
2017-Oct-09 18:47N 04°54' W 001°43'1 2.4
2017-Oct-09 18:29N 04°54' W 001°42'  
Track history (hours):
 
Tides and Currents Weather Stations Pressure Air Temp Water Temp Dewpoint Dewpoint Depression Visibility Wind Speed Wind Dir Waves Ship Positions

Bourbon Astyanax

Last reported at 2017-Oct-19 18:17 UTC. Time now 2017-Nov-19 01:09 UTC.
Position N 04°36' W 003°07'.
Warning: this ship's position is 30 days out of date.

Length 67 m; draft 5.9 m.

Type: Tug. MMSI: 228322600.

Date/timePositionNaut miles runAvg speedWind from/ knotsBaromVisibWave heightAir tempDewpointWater temp
2017-Oct-19 18:17N 04°36' W 003°07'1 2.7
2017-Oct-19 18:00N 04°35' W 003°08'0 0.3
2017-Oct-19 17:30N 04°35' W 003°08'0 0.0
2017-Oct-19 16:59N 04°35' W 003°08'1 1.5
2017-Oct-19 16:30N 04°36' W 003°08'611.6
2017-Oct-19 16:00N 04°37' W 003°02'611.9
2017-Oct-19 15:29N 04°38' W 002°56'612.0
2017-Oct-19 14:59N 04°39' W 002°50'611.9
2017-Oct-19 14:29N 04°40' W 002°44'611.6
2017-Oct-19 14:00N 04°39' W 002°38'1 1.5
2017-Oct-19 13:28N 04°40' W 002°39'2 4.9
2017-Oct-19 12:58N 04°38' W 002°40'612.3
2017-Oct-19 12:30N 04°34' W 002°45'58 3.2
2017-Oct-18 18:35N 04°46' W 001°47'110.4
2017-Oct-18 18:29N 04°46' W 001°47'510.2
2017-Oct-18 17:59N 04°50' W 001°44'4 7.5
2017-Oct-18 17:29N 04°54' W 001°42'2 4.8
2017-Oct-18 17:01N 04°53' W 001°44'0 0.1
2017-Oct-18 16:30N 04°53' W 001°44'0 0.0
2017-Oct-18 15:58N 04°53' W 001°44'0 0.0
2017-Oct-18 15:31N 04°53' W 001°44'0 0.0
2017-Oct-18 15:01N 04°53' W 001°44'0 0.0
2017-Oct-18 14:00N 04°53' W 001°44'0 0.0
2017-Oct-18 13:30N 04°53' W 001°44'0 0.0
2017-Oct-18 13:00N 04°53' W 001°44'1 2.0
2017-Oct-18 12:29N 04°54' W 001°44'2 3.1
2017-Oct-18 11:59N 04°54' W 001°42'0 0.0
2017-Oct-18 11:29N 04°54' W 001°42'0 0.0
2017-Oct-18 10:59N 04°54' W 001°42'0 0.0
2017-Oct-18 10:29N 04°54' W 001°42'0 0.0
2017-Oct-18 09:59N 04°54' W 001°42'0 0.1
2017-Oct-18 09:29N 04°54' W 001°42'0 0.4
2017-Oct-18 08:59N 04°54' W 001°43'2 3.7
2017-Oct-18 08:30N 04°55' W 001°41'2 4.0
2017-Oct-18 08:00N 04°56' W 001°42'0 0.0
2017-Oct-18 07:30N 04°56' W 001°42'0 0.0
2017-Oct-18 07:00N 04°56' W 001°42'0 0.0
2017-Oct-18 06:30N 04°56' W 001°42'0 0.0
2017-Oct-18 06:00N 04°56' W 001°42'0 0.0
2017-Oct-18 05:30N 04°56' W 001°42'0 0.0
2017-Oct-18 04:57N 04°56' W 001°42'0 0.0
2017-Oct-18 04:30N 04°56' W 001°42'0 0.0
2017-Oct-18 04:00N 04°56' W 001°42'0 0.0
2017-Oct-18 03:30N 04°56' W 001°42'0 0.0
2017-Oct-18 03:00N 04°56' W 001°42'0 0.0
2017-Oct-18 02:30N 04°56' W 001°42'0 0.0
2017-Oct-18 02:00N 04°56' W 001°42'0 0.0
2017-Oct-18 01:30N 04°56' W 001°42'0 0.0
2017-Oct-18 00:57N 04°56' W 001°42'0 0.0
2017-Oct-18 00:30N 04°56' W 001°42'0 0.0
2017-Oct-18 00:00N 04°56' W 001°42'0 0.0
2017-Oct-17 23:30N 04°56' W 001°42'0 0.0
2017-Oct-17 23:00N 04°56' W 001°42'0 0.0
2017-Oct-17 22:29N 04°56' W 001°42'0 0.0
2017-Oct-17 21:59N 04°56' W 001°42'0 0.0
2017-Oct-17 21:29N 04°56' W 001°42'0 0.0
2017-Oct-17 20:59N 04°56' W 001°42'0 0.0
2017-Oct-17 20:29N 04°56' W 001°42'0 0.0
2017-Oct-17 19:59N 04°56' W 001°42'0 0.0
2017-Oct-17 19:29N 04°56' W 001°42'0 0.0
2017-Oct-17 18:59N 04°56' W 001°42'0 0.0
2017-Oct-17 18:29N 04°56' W 001°42'0 0.0
2017-Oct-17 17:59N 04°56' W 001°42'0 0.0
2017-Oct-17 17:29N 04°56' W 001°42'0 0.0
2017-Oct-17 16:59N 04°56' W 001°42'0 0.0
2017-Oct-17 16:29N 04°56' W 001°42'0 0.0
2017-Oct-17 15:59N 04°56' W 001°42'0 0.0
2017-Oct-17 15:29N 04°56' W 001°42'0 0.0
2017-Oct-17 14:59N 04°56' W 001°42'0 0.0
2017-Oct-17 14:30N 04°56' W 001°42'1 2.7
2017-Oct-17 13:59N 04°57' W 001°40'0 0.3
2017-Oct-17 13:29N 04°56' W 001°41'1 1.4
2017-Oct-17 13:00N 04°56' W 001°41'3 5.3
2017-Oct-17 12:29N 04°54' W 001°43'1 1.6
2017-Oct-17 11:59N 04°55' W 001°43'0 0.0
2017-Oct-17 11:29N 04°55' W 001°43'0 0.0
2017-Oct-17 11:00N 04°55' W 001°43'0 0.0
2017-Oct-17 10:30N 04°55' W 001°43'0 0.0
2017-Oct-17 10:00N 04°55' W 001°43'0 0.2
2017-Oct-17 09:30N 04°55' W 001°43'0 0.1
2017-Oct-17 08:59N 04°55' W 001°43'0 0.1
2017-Oct-17 08:29N 04°55' W 001°43'0 0.0
2017-Oct-17 08:00N 04°55' W 001°43'0 0.2
2017-Oct-17 07:30N 04°54' W 001°43'0 0.0
2017-Oct-17 07:00N 04°54' W 001°43'0 0.0
2017-Oct-17 06:29N 04°54' W 001°43'0 0.1
2017-Oct-17 05:59N 04°54' W 001°43'2 3.4
2017-Oct-17 05:30N 04°53' W 001°42'2 3.3
2017-Oct-17 05:00N 04°52' W 001°42'3 6.6
2017-Oct-17 04:29N 04°49' W 001°44'3 6.6
2017-Oct-17 03:59N 04°46' W 001°46'3 6.3
2017-Oct-17 03:30N 04°44' W 001°48'3 6.8
2017-Oct-17 03:00N 04°42' W 001°50'4 7.1
2017-Oct-17 02:30N 04°39' W 001°53'4 7.1
2017-Oct-17 01:59N 04°37' W 001°55'4 7.4
2017-Oct-17 01:29N 04°34' W 001°58'4 7.3
2017-Oct-17 00:58N 04°31' W 002°00'3 6.7
2017-Oct-17 00:30N 04°30' W 002°03'54 2.9
2017-Oct-16 05:41N 04°20' W 002°56'0 1.2
2017-Oct-16 05:25N 04°21' W 002°56'1 1.2
2017-Oct-16 04:59N 04°21' W 002°57'1 2.6
2017-Oct-16 04:24N 04°22' W 002°55'4 9.0
2017-Oct-16 04:00N 04°24' W 002°53'4 7.3
2017-Oct-16 03:30N 04°27' W 002°51'4 7.2
2017-Oct-16 03:00N 04°30' W 002°48'4 7.2
2017-Oct-16 02:30N 04°33' W 002°46'4 7.2
2017-Oct-16 01:59N 04°33' W 002°43'4 7.5
2017-Oct-16 01:29N 04°33' W 002°39'4 7.7
2017-Oct-16 01:00N 04°32' W 002°35'4 7.5
2017-Oct-16 00:30N 04°32' W 002°31'4 7.5
2017-Oct-16 00:00N 04°32' W 002°28'4 7.4
2017-Oct-15 23:29N 04°32' W 002°24'4 7.3
2017-Oct-15 22:59N 04°31' W 002°20'4 7.4
2017-Oct-15 22:30N 04°31' W 002°17'4 7.4
2017-Oct-15 22:00N 04°30' W 002°13'4 7.3
2017-Oct-15 21:29N 04°30' W 002°09'3 7.3
2017-Oct-15 21:00N 04°30' W 002°06'4 7.2
2017-Oct-15 20:29N 04°30' W 002°02'16 0.7
2017-Oct-14 20:54N 04°17' W 002°12'3 6.6
2017-Oct-14 20:28N 04°14' W 002°13'3 6.5
2017-Oct-14 20:00N 04°12' W 002°15'29 1.4
2017-Oct-13 22:38N 04°04' W 002°43'5 1.5
2017-Oct-13 19:10N 04°08' W 002°46'1 3.8
2017-Oct-13 18:55N 04°09' W 002°46'3 6.1
2017-Oct-13 18:30N 04°12' W 002°47'5 6.4
2017-Oct-13 17:44N 04°17' W 002°48'2 7.3
2017-Oct-13 17:30N 04°18' W 002°48'4 7.4
2017-Oct-13 17:00N 04°22' W 002°49'4 7.2
2017-Oct-13 16:29N 04°25' W 002°49'4 7.3
2017-Oct-13 15:59N 04°29' W 002°50'4 7.4
2017-Oct-13 15:29N 04°33' W 002°50'3 6.5
2017-Oct-13 15:00N 04°36' W 002°52'2 3.1
2017-Oct-13 14:29N 04°36' W 002°53'1 1.7
2017-Oct-13 14:00N 04°36' W 002°53'0 0.5
2017-Oct-13 13:28N 04°36' W 002°53'0 0.4
2017-Oct-13 12:59N 04°36' W 002°53'0 0.3
2017-Oct-13 12:29N 04°36' W 002°53'0 0.2
2017-Oct-13 12:00N 04°36' W 002°53'0 0.1
2017-Oct-13 11:29N 04°36' W 002°53'0 0.3
2017-Oct-13 10:58N 04°36' W 002°53'0 0.3
2017-Oct-13 10:29N 04°36' W 002°54'4 6.5
2017-Oct-13 09:54N 04°34' W 002°51'510.6
2017-Oct-13 09:27N 04°29' W 002°50'3 6.7
2017-Oct-13 09:00N 04°26' W 002°49'1 1.8
2017-Oct-13 08:29N 04°25' W 002°50'0 0.2
2017-Oct-13 07:59N 04°25' W 002°50'1 1.5
2017-Oct-13 07:29N 04°26' W 002°50'2 4.1
2017-Oct-13 07:00N 04°24' W 002°51'1 1.5
2017-Oct-13 06:29N 04°23' W 002°51'1 1.6
2017-Oct-13 05:54N 04°24' W 002°50'1 2.7
2017-Oct-13 05:30N 04°25' W 002°50'1 1.0
2017-Oct-13 04:59N 04°25' W 002°50'1 1.7
2017-Oct-13 04:30N 04°26' W 002°50'2 3.0
2017-Oct-13 04:00N 04°28' W 002°49'5 6.2
2017-Oct-13 03:11N 04°30' W 002°45'1 7.3
2017-Oct-13 02:59N 04°30' W 002°43'4 7.3
2017-Oct-13 02:29N 04°30' W 002°40'4 7.3
2017-Oct-13 01:59N 04°30' W 002°36'3 7.2
2017-Oct-13 01:30N 04°32' W 002°33'3 6.8
2017-Oct-13 01:00N 04°31' W 002°29'4 7.1
2017-Oct-13 00:29N 04°31' W 002°26'4 7.3
2017-Oct-12 23:59N 04°31' W 002°22'3 7.3
2017-Oct-12 23:30N 04°31' W 002°18'4 7.7
2017-Oct-12 23:00N 04°31' W 002°14'4 8.3
2017-Oct-12 22:29N 04°31' W 002°10'4 8.3
2017-Oct-12 22:00N 04°30' W 002°06'8 8.3
2017-Oct-12 21:02N 04°31' W 001°58'18 0.8
2017-Oct-11 22:48N 04°31' W 002°16'2 7.4
2017-Oct-11 22:29N 04°31' W 002°19'4 7.6
2017-Oct-11 22:00N 04°31' W 002°22'4 7.9
2017-Oct-11 21:29N 04°32' W 002°26'4 7.8
2017-Oct-11 20:59N 04°32' W 002°30'4 8.1
2017-Oct-11 20:30N 04°32' W 002°34'4 8.1
2017-Oct-11 20:00N 04°32' W 002°38'5 9.4
2017-Oct-11 19:29N 04°32' W 002°43'510.0
2017-Oct-11 18:59N 04°33' W 002°48'510.7
2017-Oct-11 18:30N 04°36' W 002°52'2 1.0
2017-Oct-11 16:51N 04°36' W 002°54'3 0.2
2017-Oct-10 23:58N 04°36' W 002°57'1 1.6
2017-Oct-10 23:30N 04°37' W 002°57'1 1.6
2017-Oct-10 23:00N 04°38' W 002°57'0 1.0
2017-Oct-10 22:29N 04°38' W 002°57'1 2.0
2017-Oct-10 21:59N 04°37' W 002°57'1 1.9
2017-Oct-10 21:30N 04°36' W 002°57'1 2.2
2017-Oct-10 21:00N 04°35' W 002°56'2 4.3
2017-Oct-10 20:29N 04°35' W 002°58'2 4.6
2017-Oct-10 20:00N 04°36' W 003°01'2 3.1
2017-Oct-10 19:23N 04°35' W 003°03'2 3.3
2017-Oct-10 18:50N 04°35' W 003°04'4 2.8
2017-Oct-10 17:21N 04°35' W 003°08'14 8.0
2017-Oct-10 15:34N 04°33' W 002°54'1 7.2
2017-Oct-10 15:29N 04°33' W 002°53'1 1.3
2017-Oct-10 15:00N 04°34' W 002°53'0 0.1
2017-Oct-10 13:59N 04°34' W 002°54'0 0.1
2017-Oct-10 13:30N 04°34' W 002°54'0 0.2
2017-Oct-10 13:00N 04°34' W 002°54'0 0.8
2017-Oct-10 12:29N 04°34' W 002°54'1 1.1
2017-Oct-10 11:53N 04°34' W 002°53'1 1.9
2017-Oct-10 11:25N 04°34' W 002°52'1 1.9
2017-Oct-10 10:58N 04°35' W 002°52'1 2.0
2017-Oct-10 10:29N 04°36' W 002°53'0 0.7
2017-Oct-10 10:00N 04°36' W 002°53'1 1.4
2017-Oct-10 09:30N 04°35' W 002°53'4 8.8
2017-Oct-10 09:00N 04°32' W 002°50'5 9.3
2017-Oct-10 08:29N 04°35' W 002°46'611.4
2017-Oct-10 07:59N 04°39' W 002°42'2 4.1
2017-Oct-10 07:27N 04°40' W 002°40'0 0.9
2017-Oct-10 06:59N 04°40' W 002°41'5 2.7
2017-Oct-10 05:13N 04°36' W 002°38'1 6.5
2017-Oct-10 04:59N 04°35' W 002°37'3 6.3
2017-Oct-10 04:29N 04°32' W 002°35'4 8.6
2017-Oct-10 04:00N 04°31' W 002°31'611.8
2017-Oct-10 03:30N 04°31' W 002°25'611.8
2017-Oct-10 03:00N 04°31' W 002°19'611.7
2017-Oct-10 02:30N 04°30' W 002°14'611.5
2017-Oct-10 01:59N 04°30' W 002°08'611.7
2017-Oct-10 01:29N 04°30' W 002°02'510.6
2017-Oct-10 00:59N 04°33' W 001°57'24 4.6
2017-Oct-09 19:49N 04°53' W 001°44'1 3.6
2017-Oct-09 19:30N 04°54' W 001°44'1 1.1
2017-Oct-09 18:47N 04°54' W 001°43'1 2.4
2017-Oct-09 18:29N 04°54' W 001°42'  

Dump ship's entire track history